Time;durP1;ratioP1;P1;durP2;ratioP2;P2;SDS_P1;SDS_P2;PMS_P1;PMS_P2;Temp;Humidity;BMP_temperature;BMP_pressure;BME280_temperature;BME280_humidity;BME280_pressure;Samples;Min_cycle;Max_cycle;Signal;HPM_P1;HPM_P2
2022/04/19 00:01:10;;;;;;;10.65;5.20;;;10.50;72.60;;;;;;5061320;28;20061;-75
2022/04/19 00:03:36;;;;;;;10.32;6.03;;;10.50;73.10;;;;;;5041769;28;20467;-75
2022/04/19 00:06:01;;;;;;;11.13;6.25;;;10.50;73.40;;;;;;5046508;28;20231;-75
2022/04/19 00:08:27;;;;;;;10.13;6.32;;;10.50;73.70;;;;;;5046632;28;20123;-75
2022/04/19 00:10:53;;;;;;;9.80;5.63;;;10.40;74.20;;;;;;5056891;28;20047;-77
2022/04/19 00:13:18;;;;;;;11.43;6.25;;;10.40;74.40;;;;;;5038039;28;20181;-77
2022/04/19 00:15:45;;;;;;;11.30;6.32;;;10.40;74.60;;;;;;5032449;28;20615;-74
2022/04/19 00:18:11;;;;;;;9.93;6.05;;;10.40;75.10;;;;;;5032307;28;20106;-75
2022/04/19 00:20:42;;;;;;;11.73;6.78;;;10.40;76.00;;;;;;5064805;28;20076;-74
2022/04/19 00:23:15;;;;;;;12.20;6.63;;;10.40;76.30;;;;;;5033657;28;20041;-74
2022/04/19 00:25:42;;;;;;;12.07;6.53;;;10.30;76.10;;;;;;5065197;28;20043;-74
2022/04/19 00:28:09;;;;;;;11.18;6.43;;;10.20;77.10;;;;;;5039866;28;20610;-74
2022/04/19 00:30:35;;;;;;;10.00;5.85;;;10.20;77.40;;;;;;5055032;28;20056;-74
2022/04/19 00:33:00;;;;;;;15.63;7.07;;;10.10;78.00;;;;;;5064514;28;20049;-75
2022/04/19 00:35:28;;;;;;;10.25;6.35;;;10.10;78.10;;;;;;5041254;28;20041;-74
2022/04/19 00:37:54;;;;;;;11.43;6.68;;;10.00;78.30;;;;;;5053542;28;20048;-74
2022/04/19 00:40:20;;;;;;;8.02;5.45;;;9.90;79.10;;;;;;5052246;28;20033;-77
2022/04/19 00:42:47;;;;;;;11.80;6.43;;;9.80;79.90;;;;;;5036535;28;20055;-77
2022/04/19 00:45:13;;;;;;;10.73;6.35;;;9.70;80.60;;;;;;5053863;28;20156;-77
2022/04/19 00:47:39;;;;;;;8.93;5.93;;;9.70;81.60;;;;;;5041584;28;20051;-74
2022/04/19 00:50:07;;;;;;;11.70;6.20;;;9.70;82.60;;;;;;5056120;28;20182;-74
2022/04/19 00:52:35;;;;;;;10.48;6.47;;;9.60;83.50;;;;;;5035072;28;20069;-74
2022/04/19 00:55:02;;;;;;;11.27;6.50;;;9.60;84.90;;;;;;5053820;28;20049;-74
2022/04/19 00:57:28;;;;;;;10.13;6.45;;;9.60;85.90;;;;;;5054448;28;20056;-74
2022/04/19 00:59:57;;;;;;;12.52;6.88;;;9.50;87.10;;;;;;5037200;28;20044;-75
2022/04/19 01:02:24;;;;;;;11.63;6.35;;;9.50;88.50;;;;;;5051549;28;20078;-75
2022/04/19 01:04:50;;;;;;;12.57;6.53;;;9.50;89.90;;;;;;5067855;28;20045;-74
2022/04/19 01:07:18;;;;;;;11.02;6.47;;;9.50;90.40;;;;;;5062900;28;20047;-77
2022/04/19 01:09:45;;;;;;;10.55;5.93;;;9.40;90.90;;;;;;5052485;28;20056;-74
2022/04/19 01:14:56;;;;;;;10.10;6.40;;;9.40;91.90;;;;;;5056972;28;20056;-77
2022/04/19 01:17:22;;;;;;;11.88;6.85;;;9.30;92.60;;;;;;5052605;28;20052;-75
2022/04/19 01:19:49;;;;;;;11.77;6.45;;;9.30;93.20;;;;;;5031157;28;20140;-75
2022/04/19 01:22:15;;;;;;;11.13;7.45;;;9.30;93.90;;;;;;5036888;28;20167;-77
2022/04/19 01:24:44;;;;;;;13.75;6.88;;;9.30;94.00;;;;;;5064251;28;20120;-75
2022/04/19 01:27:10;;;;;;;11.07;6.35;;;9.20;94.10;;;;;;5051893;28;20114;-77
2022/04/19 01:29:36;;;;;;;14.45;6.63;;;9.20;94.30;;;;;;5032914;28;20071;-75
2022/04/19 01:32:04;;;;;;;10.07;6.35;;;9.20;94.50;;;;;;5055776;28;20040;-77
2022/04/19 01:34:30;;;;;;;14.65;6.88;;;9.20;94.50;;;;;;5052802;28;20041;-75
2022/04/19 01:36:55;;;;;;;11.57;6.90;;;9.10;94.60;;;;;;5037150;28;20052;-74
2022/04/19 01:40:16;;;;;;;8.88;5.90;;;9.10;94.80;;;;;;5051930;28;20040;-75
2022/04/19 01:42:07;;;;;;;9.38;6.38;;;9.10;94.70;;;;;;5033907;28;20056;-75
2022/04/19 01:44:33;;;;;;;9.85;6.03;;;9.00;94.60;;;;;;5056838;28;20361;-74
2022/04/19 01:47:00;;;;;;;12.20;6.85;;;9.00;94.80;;;;;;5052106;28;20132;-74
2022/04/19 01:49:26;;;;;;;10.85;6.03;;;9.00;95.20;;;;;;5036989;28;20059;-74
2022/04/19 01:51:52;;;;;;;10.13;6.82;;;9.00;95.60;;;;;;5040010;28;20045;-75
2022/04/19 01:54:17;;;;;;;12.27;6.63;;;9.00;96.10;;;;;;5061270;28;20062;-75
2022/04/19 01:56:44;;;;;;;12.00;6.97;;;8.90;96.40;;;;;;5032105;28;20120;-74
2022/04/19 01:59:09;;;;;;;15.65;6.78;;;8.80;96.70;;;;;;5053360;28;20041;-75
2022/04/19 02:01:35;;;;;;;11.15;6.30;;;8.80;96.90;;;;;;5055580;28;20569;-74
2022/04/19 02:04:01;;;;;;;12.63;7.28;;;8.70;97.10;;;;;;5031041;28;20049;-75
2022/04/19 02:06:27;;;;;;;10.40;6.93;;;8.70;97.40;;;;;;5053209;28;20065;-75
2022/04/19 02:08:53;;;;;;;12.57;7.30;;;8.70;97.60;;;;;;5054645;28;20044;-75
2022/04/19 02:11:18;;;;;;;12.10;6.30;;;8.70;98.00;;;;;;5030435;28;20037;-75
2022/04/19 02:13:44;;;;;;;10.32;6.22;;;8.70;98.20;;;;;;5048359;28;20323;-75
2022/04/19 02:16:09;;;;;;;11.43;6.63;;;8.60;98.40;;;;;;5031758;28;20033;-75
2022/04/19 02:18:35;;;;;;;10.98;6.47;;;8.70;98.60;;;;;;5037668;28;20041;-75
2022/04/19 02:21:00;;;;;;;13.43;7.72;;;8.60;98.70;;;;;;5036799;28;20602;-75
2022/04/19 02:23:27;;;;;;;10.52;6.10;;;8.60;98.90;;;;;;5058793;28;20098;-74
2022/04/19 02:25:54;;;;;;;12.57;6.78;;;8.60;98.90;;;;;;5056219;28;20542;-74
2022/04/19 02:28:21;;;;;;;8.35;5.70;;;8.60;98.90;;;;;;5048648;28;20508;-74
2022/04/19 02:30:47;;;;;;;10.52;6.53;;;8.50;99.00;;;;;;5047899;28;20071;-75
2022/04/19 02:33:12;;;;;;;11.13;6.65;;;8.50;99.10;;;;;;5039901;28;20044;-75
2022/04/19 02:35:40;;;;;;;11.15;6.40;;;8.50;99.20;;;;;;5042701;28;20097;-75
2022/04/19 02:38:05;;;;;;;11.98;6.28;;;8.50;99.20;;;;;;5040480;28;20067;-75
2022/04/19 02:40:31;;;;;;;11.00;6.40;;;8.50;99.20;;;;;;5060969;28;20049;-74
2022/04/19 02:42:57;;;;;;;11.95;5.78;;;8.50;99.20;;;;;;5052669;28;20088;-75
2022/04/19 02:45:23;;;;;;;9.82;5.30;;;8.50;99.10;;;;;;5060636;28;20092;-75
2022/04/19 02:48:03;;;;;;;11.02;5.65;;;8.50;99.10;;;;;;5057905;28;21258;-74
2022/04/19 02:50:33;;;;;;;11.90;6.47;;;8.50;99.00;;;;;;5031403;28;20127;-75
2022/04/19 02:53:02;;;;;;;10.98;6.30;;;8.40;99.20;;;;;;5055025;28;20075;-75
2022/04/19 02:55:28;;;;;;;12.25;6.78;;;8.50;99.20;;;;;;5043569;28;20044;-74
2022/04/19 02:57:54;;;;;;;12.25;5.80;;;8.50;99.30;;;;;;5054723;28;20051;-77
2022/04/19 03:00:20;;;;;;;8.75;5.68;;;8.40;99.20;;;;;;5052931;28;20567;-75
2022/04/19 03:02:49;;;;;;;8.57;5.78;;;8.40;99.10;;;;;;5056173;28;20041;-75
2022/04/19 03:05:19;;;;;;;9.90;6.13;;;8.40;99.20;;;;;;5060747;28;20037;-75
2022/04/19 03:07:46;;;;;;;17.88;6.70;;;8.40;99.50;;;;;;5051854;28;20036;-75
2022/04/19 03:10:12;;;;;;;8.98;5.90;;;8.40;99.40;;;;;;5059907;28;20083;-74
2022/04/19 03:12:39;;;;;;;11.48;6.22;;;8.40;99.50;;;;;;5058381;28;20044;-75
2022/04/19 03:15:06;;;;;;;10.10;5.82;;;8.40;99.60;;;;;;5036255;28;20076;-74
2022/04/19 03:17:32;;;;;;;11.43;6.65;;;8.40;99.60;;;;;;5051553;28;20069;-75
2022/04/19 03:19:58;;;;;;;8.85;5.57;;;8.40;99.70;;;;;;5050124;28;20051;-75
2022/04/19 03:22:24;;;;;;;14.82;6.40;;;8.40;99.80;;;;;;5035371;28;20167;-75
2022/04/19 03:27:43;;;;;;;10.60;6.20;;;8.40;99.90;;;;;;5050628;28;20541;-75
2022/04/19 03:30:13;;;;;;;12.68;5.85;;;8.40;99.90;;;;;;5055971;28;20425;-75
2022/04/19 03:32:42;;;;;;;9.40;5.80;;;8.40;99.90;;;;;;5061577;28;20063;-75
2022/04/19 03:35:08;;;;;;;11.02;6.35;;;8.40;99.90;;;;;;5065480;28;20443;-75
2022/04/19 03:37:33;;;;;;;10.27;6.28;;;8.40;99.90;;;;;;5033026;28;20084;-75
2022/04/19 03:39:59;;;;;;;9.93;6.25;;;8.40;99.90;;;;;;5044266;28;20461;-75
2022/04/19 03:42:25;;;;;;;10.18;6.43;;;8.40;99.90;;;;;;5034107;28;20081;-75
2022/04/19 03:44:50;;;;;;;10.80;6.20;;;8.30;99.90;;;;;;5063784;28;20044;-75
2022/04/19 03:47:16;;;;;;;9.88;6.25;;;8.40;99.90;;;;;;5054473;28;20200;-74
2022/04/19 03:49:42;;;;;;;9.38;6.15;;;8.40;99.90;;;;;;5039124;28;20067;-75
2022/04/19 03:52:08;;;;;;;11.52;5.63;;;8.30;99.90;;;;;;5054812;28;20037;-75
2022/04/19 03:54:35;;;;;;;9.90;5.70;;;8.30;99.90;;;;;;5040315;28;20076;-75
2022/04/19 03:57:07;;;;;;;9.40;5.95;;;8.30;99.90;;;;;;5036851;28;20041;-75
2022/04/19 03:59:39;;;;;;;11.60;6.40;;;8.30;99.90;;;;;;5048736;28;20108;-75
2022/04/19 04:02:06;;;;;;;10.90;6.53;;;8.30;99.90;;;;;;5034261;28;20049;-74
2022/04/19 04:04:32;;;;;;;9.68;6.10;;;8.30;99.90;;;;;;5058739;28;20044;-75
2022/04/19 04:06:58;;;;;;;11.75;6.22;;;8.30;99.90;;;;;;5045173;28;20411;-75
2022/04/19 04:09:25;;;;;;;11.63;6.60;;;8.20;99.90;;;;;;5068386;28;20043;-76
2022/04/19 04:11:51;;;;;;;11.02;6.43;;;8.20;99.90;;;;;;5041488;28;20090;-75
2022/04/19 04:14:16;;;;;;;11.93;7.13;;;8.20;99.90;;;;;;5036230;28;20053;-75
2022/04/19 04:16:42;;;;;;;10.10;5.72;;;8.20;99.90;;;;;;5055555;28;20041;-75
2022/04/19 04:19:07;;;;;;;11.98;6.30;;;8.20;99.90;;;;;;5042537;28;20044;-74
2022/04/19 04:21:36;;;;;;;11.73;6.68;;;8.10;99.90;;;;;;5054329;28;20437;-75
2022/04/19 04:24:02;;;;;;;12.50;6.18;;;8.40;99.90;;;;;;5063758;28;20105;-75
2022/04/19 04:26:27;;;;;;;12.18;6.68;;;8.10;99.90;;;;;;5063097;28;20036;-75
2022/04/19 04:28:53;;;;;;;14.38;6.57;;;8.10;99.90;;;;;;5055749;28;20043;-75
2022/04/19 04:31:18;;;;;;;14.40;7.40;;;8.10;99.90;;;;;;5051526;28;20052;-75
2022/04/19 04:33:44;;;;;;;15.48;7.13;;;8.10;99.90;;;;;;5052751;28;20032;-76
2022/04/19 04:36:10;;;;;;;12.48;6.03;;;8.10;99.90;;;;;;5034865;28;20040;-75
2022/04/19 04:38:35;;;;;;;13.23;7.35;;;8.00;99.90;;;;;;5058646;28;20041;-75
2022/04/19 04:41:01;;;;;;;13.60;7.38;;;8.00;99.90;;;;;;5041553;28;20097;-75
2022/04/19 04:43:27;;;;;;;10.85;5.80;;;8.00;99.90;;;;;;5059234;28;20113;-75
2022/04/19 04:51:21;;;;;;;14.63;6.78;;;8.00;99.90;;;;;;5060891;28;20040;-75
2022/04/19 04:53:46;;;;;;;15.60;7.20;;;8.00;99.90;;;;;;5055408;28;20456;-74
2022/04/19 04:56:12;;;;;;;12.65;7.20;;;8.00;99.90;;;;;;5033567;28;20081;-75
2022/04/19 04:58:38;;;;;;;10.98;6.85;;;8.00;99.90;;;;;;5050270;28;20079;-75
2022/04/19 05:01:03;;;;;;;13.77;7.43;;;8.00;99.90;;;;;;5051631;28;20094;-75
2022/04/19 05:03:29;;;;;;;13.93;7.40;;;8.00;99.90;;;;;;5062116;28;20048;-75
2022/04/19 05:05:56;;;;;;;9.98;6.10;;;8.00;99.90;;;;;;5061431;28;20143;-75
2022/04/19 05:08:22;;;;;;;13.00;6.70;;;8.00;99.90;;;;;;5053143;28;20438;-74
2022/04/19 05:10:47;;;;;;;13.27;7.05;;;8.10;99.90;;;;;;5032467;28;20045;-75
2022/04/19 05:13:13;;;;;;;12.50;7.43;;;8.10;99.90;;;;;;5036417;28;20570;-75
2022/04/19 05:15:38;;;;;;;14.20;7.15;;;8.10;99.90;;;;;;5056251;28;20052;-77
2022/04/19 05:18:04;;;;;;;11.05;7.15;;;8.10;99.90;;;;;;5036438;28;20037;-77
2022/04/19 05:20:30;;;;;;;12.77;6.50;;;8.20;99.90;;;;;;5044654;28;20041;-76
2022/04/19 05:22:55;;;;;;;13.85;7.65;;;8.20;99.90;;;;;;5043445;28;21390;-76
2022/04/19 05:25:21;;;;;;;11.68;7.45;;;8.20;99.90;;;;;;5060312;28;20387;-76
2022/04/19 05:27:46;;;;;;;13.48;6.78;;;8.30;99.90;;;;;;5057286;28;20063;-75
2022/04/19 05:30:12;;;;;;;13.20;7.03;;;8.30;99.90;;;;;;5044088;28;20474;-75
2022/04/19 05:32:37;;;;;;;14.20;8.30;;;8.30;99.90;;;;;;5060468;28;20040;-75
2022/04/19 05:35:03;;;;;;;12.73;7.22;;;8.40;99.90;;;;;;5056223;28;20041;-75
2022/04/19 05:37:29;;;;;;;13.15;7.40;;;8.40;99.90;;;;;;5030740;28;20117;-74
2022/04/19 05:39:54;;;;;;;13.32;7.40;;;8.50;99.90;;;;;;5034478;28;20051;-77
2022/04/19 05:42:20;;;;;;;12.73;7.05;;;8.50;99.90;;;;;;5053352;28;20498;-75
2022/04/19 05:44:46;;;;;;;12.43;7.85;;;8.60;99.90;;;;;;5039400;28;20146;-75
2022/04/19 05:47:14;;;;;;;11.75;7.25;;;8.60;99.90;;;;;;5052602;28;20102;-75
2022/04/19 05:49:40;;;;;;;13.80;7.50;;;8.60;99.90;;;;;;5032602;28;20049;-76
2022/04/19 05:52:06;;;;;;;15.57;7.35;;;8.70;99.90;;;;;;5037902;28;20132;-76
2022/04/19 05:54:31;;;;;;;13.10;7.22;;;8.80;99.90;;;;;;5034268;28;20064;-76
2022/04/19 05:57:00;;;;;;;11.77;7.43;;;8.80;99.90;;;;;;5053412;28;20059;-76
2022/04/19 05:59:25;;;;;;;15.45;7.13;;;8.90;99.90;;;;;;5057217;28;20036;-76
2022/04/19 06:04:53;;;;;;;13.48;7.15;;;9.00;99.90;;;;;;5031912;28;20045;-75
2022/04/19 06:07:23;;;;;;;15.57;6.50;;;9.10;99.90;;;;;;5038632;28;20151;-75
2022/04/19 06:09:49;;;;;;;15.70;8.20;;;9.10;99.90;;;;;;5037459;28;20131;-75
2022/04/19 06:12:15;;;;;;;12.05;6.75;;;9.20;99.90;;;;;;5052851;28;20488;-74
2022/04/19 06:14:41;;;;;;;13.80;7.40;;;9.30;99.90;;;;;;5063554;28;20040;-74
2022/04/19 06:17:06;;;;;;;13.43;7.63;;;9.40;99.90;;;;;;5043639;28;20075;-75
2022/04/19 06:19:32;;;;;;;13.38;7.43;;;9.40;99.90;;;;;;5036967;28;20641;-76
2022/04/19 06:21:58;;;;;;;11.38;7.22;;;9.50;99.90;;;;;;5043921;28;20066;-76
2022/04/19 06:24:24;;;;;;;15.25;7.40;;;9.60;99.90;;;;;;5039816;28;20115;-75
2022/04/19 06:26:49;;;;;;;14.85;7.32;;;9.60;99.90;;;;;;5033180;28;20041;-75
2022/04/19 06:29:15;;;;;;;11.63;7.20;;;9.70;99.90;;;;;;5062631;28;20044;-77
2022/04/19 06:31:41;;;;;;;16.33;7.45;;;9.80;99.90;;;;;;5054719;28;20048;-76
2022/04/19 06:34:07;;;;;;;15.15;7.65;;;9.90;99.90;;;;;;5040121;28;20043;-76
2022/04/19 06:36:34;;;;;;;12.70;6.78;;;9.90;99.90;;;;;;5036971;28;20141;-76
2022/04/19 06:38:59;;;;;;;12.82;6.25;;;10.00;99.90;;;;;;5050763;28;20045;-76
2022/04/19 06:41:25;;;;;;;13.73;7.00;;;10.10;99.90;;;;;;5046693;28;20051;-76
2022/04/19 06:43:51;;;;;;;11.13;6.53;;;10.20;99.90;;;;;;5035670;28;20055;-76
2022/04/19 06:46:17;;;;;;;9.70;6.15;;;10.30;99.90;;;;;;5046819;28;20423;-77
2022/04/19 06:48:43;;;;;;;13.52;6.82;;;10.40;99.90;;;;;;5055106;28;20066;-76
2022/04/19 06:51:09;;;;;;;9.65;6.15;;;10.50;99.90;;;;;;5031940;28;20132;-76
2022/04/19 06:53:36;;;;;;;11.60;5.50;;;10.50;99.90;;;;;;5032556;28;20044;-74
2022/04/19 06:56:04;;;;;;;14.35;6.03;;;10.60;99.90;;;;;;5030543;28;20456;-75
2022/04/19 06:58:30;;;;;;;9.02;5.40;;;10.70;99.90;;;;;;5037749;28;20044;-75
2022/04/19 07:00:56;;;;;;;10.18;5.85;;;10.80;99.90;;;;;;5058359;28;20103;-75
2022/04/19 07:03:24;;;;;;;10.15;5.35;;;10.90;99.90;;;;;;5038391;28;20632;-74
2022/04/19 07:05:50;;;;;;;12.52;6.13;;;11.00;99.90;;;;;;5040455;28;20048;-74
2022/04/19 07:08:16;;;;;;;12.10;5.60;;;11.00;99.90;;;;;;5044161;28;20524;-75
2022/04/19 07:10:42;;;;;;;16.23;5.97;;;11.10;99.90;;;;;;5045253;28;20190;-79
2022/04/19 07:13:08;;;;;;;9.98;5.28;;;11.20;99.90;;;;;;5037120;28;20045;-75
2022/04/19 07:15:34;;;;;;;11.35;5.78;;;11.30;99.90;;;;;;5052292;28;20037;-75
2022/04/19 07:17:59;;;;;;;9.98;5.90;;;11.40;99.90;;;;;;5061140;28;20046;-75
2022/04/19 07:28:37;;;;;;;8.88;5.55;;;11.80;99.90;;;;;;5058402;28;20048;-75
2022/04/19 07:31:04;;;;;;;7.57;5.10;;;11.90;99.90;;;;;;5068743;28;20068;-75
2022/04/19 07:33:30;;;;;;;8.00;4.88;;;11.90;99.90;;;;;;5043109;28;20052;-75
2022/04/19 07:35:56;;;;;;;11.38;4.72;;;12.00;99.90;;;;;;5069717;28;20169;-75
2022/04/19 07:38:22;;;;;;;8.60;4.88;;;12.10;99.60;;;;;;5071492;28;20120;-74
2022/04/19 07:40:49;;;;;;;7.80;4.72;;;12.10;99.20;;;;;;5058563;28;20052;-75
2022/04/19 07:43:15;;;;;;;10.40;5.50;;;12.20;99.00;;;;;;5033958;28;20045;-74
2022/04/19 07:45:40;;;;;;;10.27;4.45;;;12.30;98.80;;;;;;5032482;28;20040;-74
2022/04/19 07:48:06;;;;;;;9.00;4.60;;;12.30;98.60;;;;;;5056011;28;20618;-74
2022/04/19 07:50:34;;;;;;;7.97;4.57;;;12.40;98.40;;;;;;5069491;28;20048;-75
2022/04/19 07:53:00;;;;;;;9.10;5.18;;;12.50;98.10;;;;;;5069284;28;20049;-74
2022/04/19 07:55:27;;;;;;;8.88;4.03;;;12.50;97.90;;;;;;5051271;28;20052;-74
2022/04/19 07:57:53;;;;;;;10.02;4.80;;;12.60;97.50;;;;;;5056185;28;20036;-74
2022/04/19 08:00:19;;;;;;;7.57;4.10;;;12.60;97.30;;;;;;5050406;28;20140;-74
2022/04/19 08:02:46;;;;;;;9.32;4.35;;;12.80;97.10;;;;;;5043047;28;20064;-75
2022/04/19 08:05:12;;;;;;;5.88;3.60;;;12.80;96.50;;;;;;5050528;28;20037;-74
2022/04/19 08:07:37;;;;;;;8.13;3.80;;;12.90;96.50;;;;;;5057045;28;20041;-74
2022/04/19 08:10:04;;;;;;;5.72;3.60;;;12.90;96.20;;;;;;5038454;28;20052;-75
2022/04/19 08:12:31;;;;;;;6.65;4.05;;;13.00;96.00;;;;;;5049686;28;20110;-75
2022/04/19 08:14:57;;;;;;;6.15;3.58;;;13.00;95.60;;;;;;5057020;28;20452;-75
2022/04/19 08:17:22;;;;;;;9.68;3.67;;;13.10;95.20;;;;;;5051953;28;20145;-75
2022/04/19 08:19:48;;;;;;;8.18;3.50;;;13.10;94.50;;;;;;5074006;28;20391;-75
2022/04/19 08:22:14;;;;;;;5.10;3.03;;;13.20;94.10;;;;;;5037922;28;21354;-75
2022/04/19 08:24:40;;;;;;;6.47;2.88;;;13.30;93.40;;;;;;5065289;28;20036;-75
2022/04/19 08:27:06;;;;;;;4.43;2.88;;;13.30;92.80;;;;;;5073183;28;20062;-75
2022/04/19 08:29:32;;;;;;;7.43;2.33;;;13.40;92.40;;;;;;5075629;28;20444;-76
2022/04/19 08:31:57;;;;;;;4.00;2.00;;;13.50;91.80;;;;;;5082439;28;20052;-74
2022/04/19 08:34:23;;;;;;;3.42;2.28;;;13.50;90.80;;;;;;5047949;28;20310;-74
2022/04/19 08:36:48;;;;;;;4.97;2.00;;;13.60;90.10;;;;;;5069927;28;20104;-74
2022/04/19 08:39:14;;;;;;;4.38;1.88;;;13.60;89.80;;;;;;5072365;28;20040;-80
2022/04/19 08:41:40;;;;;;;3.05;1.40;;;13.70;87.70;;;;;;5075299;28;20102;-80
2022/04/19 08:44:06;;;;;;;8.48;1.40;;;13.70;86.00;;;;;;5062433;28;20048;-74
2022/04/19 08:46:33;;;;;;;2.22;1.20;;;13.90;84.10;;;;;;5046923;28;20064;-80
2022/04/19 08:49:05;;;;;;;2.65;1.48;;;13.80;82.40;;;;;;5090649;28;20060;-80
2022/04/19 08:51:34;;;;;;;2.03;1.25;;;13.90;81.20;;;;;;5037822;28;20040;-80
2022/04/19 08:59:30;;;;;;;3.58;1.60;;;14.40;80.80;;;;;;5065431;28;20084;-80
2022/04/19 09:01:57;;;;;;;6.30;2.00;;;14.00;79.80;;;;;;5038505;28;20535;-81
2022/04/19 09:04:23;;;;;;;4.68;1.80;;;14.10;79.40;;;;;;5034784;28;20068;-80
2022/04/19 09:06:57;;;;;;;7.55;1.92;;;14.20;79.20;;;;;;5033926;28;20045;-81
2022/04/19 09:09:24;;;;;;;7.07;2.10;;;14.30;78.20;;;;;;5057539;28;20056;-82
2022/04/19 09:11:51;;;;;;;4.78;2.20;;;14.20;77.60;;;;;;5056583;28;20392;-81
2022/04/19 09:14:17;;;;;;;3.65;1.90;;;14.30;77.70;;;;;;5060503;28;20098;-80
2022/04/19 09:16:44;;;;;;;4.68;2.35;;;14.30;77.20;;;;;;5057705;28;20041;-80
2022/04/19 09:19:10;;;;;;;3.90;1.92;;;14.40;76.50;;;;;;5051577;28;20044;-80
2022/04/19 09:21:39;;;;;;;6.05;3.03;;;14.40;76.00;;;;;;5044661;28;20036;-79
2022/04/19 09:24:26;;;;;;;3.28;1.90;;;14.50;76.70;;;;;;5058479;28;20044;-79
2022/04/19 09:26:52;;;;;;;5.20;2.35;;;14.50;76.50;;;;;;5081147;28;20028;-81
2022/04/19 09:29:27;;;;;;;4.47;2.33;;;14.50;76.70;;;;;;5089592;28;20403;-80
2022/04/19 09:31:58;;;;;;;7.22;2.72;;;14.60;76.40;;;;;;5074065;28;20094;-80
2022/04/19 09:34:28;;;;;;;3.85;2.50;;;14.70;76.10;;;;;;5037249;28;20045;-80
2022/04/19 09:37:10;;;;;;;5.38;2.47;;;14.70;76.00;;;;;;5048716;28;20052;-77
2022/04/19 09:39:40;;;;;;;6.20;2.67;;;14.80;75.80;;;;;;5030217;28;20128;-78
2022/04/19 09:42:08;;;;;;;6.95;2.72;;;14.90;75.40;;;;;;5029305;28;20124;-78
2022/04/19 09:44:42;;;;;;;6.13;2.33;;;14.90;75.40;;;;;;5037432;28;20406;-78
2022/04/19 09:47:10;;;;;;;4.78;2.58;;;15.00;75.20;;;;;;5029585;28;20041;-79
2022/04/19 09:49:49;;;;;;;5.35;2.47;;;15.20;75.40;;;;;;5031834;28;20102;-78
2022/04/19 09:52:43;;;;;;;5.25;2.70;;;15.10;74.30;;;;;;5034876;28;20041;-78
2022/04/19 09:55:11;;;;;;;3.50;2.10;;;15.20;74.40;;;;;;5047969;28;20041;-77
2022/04/19 09:57:40;;;;;;;3.92;2.40;;;15.20;74.30;;;;;;5086159;28;20495;-78
2022/04/19 10:00:12;;;;;;;4.78;2.42;;;15.30;73.90;;;;;;5070043;28;20106;-78
2022/04/19 10:08:43;;;;;;;5.40;2.28;;;15.40;73.50;;;;;;5046764;28;20334;-80
2022/04/19 10:11:01;;;;;;;10.80;2.47;;;15.40;72.90;;;;;;5042775;28;20062;-74
2022/04/19 10:13:29;;;;;;;5.93;2.58;;;15.50;72.50;;;;;;5050107;28;20063;-75
2022/04/19 10:15:55;;;;;;;4.25;2.47;;;15.60;72.30;;;;;;5076364;28;20160;-76
2022/04/19 10:18:20;;;;;;;5.22;2.25;;;15.60;71.70;;;;;;5070250;28;20120;-76
2022/04/19 10:20:55;;;;;;;6.22;2.90;;;15.70;71.30;;;;;;5057682;28;20065;-76
2022/04/19 10:23:32;;;;;;;7.07;2.42;;;15.70;71.10;;;;;;5061885;28;20045;-76
2022/04/19 10:26:21;;;;;;;5.90;2.70;;;15.80;71.10;;;;;;5029230;28;20140;-76
2022/04/19 10:28:55;;;;;;;4.10;2.08;;;15.90;70.90;;;;;;5067904;28;20091;-76
2022/04/19 10:31:34;;;;;;;4.63;2.15;;;15.80;70.40;;;;;;5055884;28;20059;-76
2022/04/19 10:34:04;;;;;;;3.42;2.40;;;16.00;70.00;;;;;;5058882;28;20349;-76
2022/04/19 10:36:33;;;;;;;4.55;2.20;;;16.10;69.30;;;;;;5049064;28;20036;-76
2022/04/19 10:39:31;;;;;;;4.75;2.58;;;16.10;69.30;;;;;;5040468;28;20041;-76
2022/04/19 10:42:02;;;;;;;4.13;2.40;;;16.20;69.40;;;;;;5065171;28;20114;-76
2022/04/19 10:44:43;;;;;;;5.43;2.45;;;16.40;68.80;;;;;;5064922;28;20553;-75
2022/04/19 10:47:13;;;;;;;4.07;2.17;;;16.50;68.70;;;;;;5064701;28;20036;-76
2022/04/19 10:49:57;;;;;;;7.05;2.58;;;16.60;68.30;;;;;;5072682;28;20043;-76
2022/04/19 10:52:39;;;;;;;4.85;2.35;;;16.70;68.30;;;;;;5075117;28;20144;-76
2022/04/19 10:55:08;;;;;;;11.07;2.88;;;16.80;68.10;;;;;;5070379;28;20135;-75
2022/04/19 11:00:29;;;;;;;4.88;2.67;;;17.10;67.30;;;;;;5051787;28;20063;-76
2022/04/19 11:03:02;;;;;;;4.05;2.30;;;17.20;66.80;;;;;;5058933;28;20044;-76
2022/04/19 11:05:53;;;;;;;4.03;2.30;;;17.40;66.70;;;;;;5072110;28;20037;-76
2022/04/19 11:08:25;;;;;;;4.18;2.10;;;17.50;66.10;;;;;;5033866;28;20090;-75
2022/04/19 11:11:02;;;;;;;3.53;2.28;;;17.60;65.80;;;;;;5031521;28;20440;-75
2022/04/19 11:13:35;;;;;;;12.52;2.45;;;17.70;65.30;;;;;;5051751;28;20052;-75
2022/04/19 11:16:04;;;;;;;7.35;2.20;;;17.90;64.60;;;;;;5035729;28;20045;-78
2022/04/19 11:18:31;;;;;;;6.32;2.20;;;17.90;64.80;;;;;;5034663;28;20048;-75
2022/04/19 11:20:59;;;;;;;4.05;2.05;;;18.00;64.60;;;;;;5070035;28;20595;-73
2022/04/19 11:23:27;;;;;;;4.97;2.78;;;18.20;64.20;;;;;;5047408;28;20258;-74
2022/04/19 11:25:54;;;;;;;6.43;2.38;;;18.40;63.50;;;;;;5050743;28;20048;-73
2022/04/19 11:28:30;;;;;;;8.93;2.65;;;18.50;63.50;;;;;;5036167;28;20052;-74
2022/04/19 11:30:56;;;;;;;4.80;2.47;;;18.60;63.30;;;;;;5038372;28;20105;-75
2022/04/19 11:33:27;;;;;;;5.82;2.80;;;18.80;63.40;;;;;;5059736;28;20036;-74
2022/04/19 11:36:00;;;;;;;;;;;19.00;62.90;;;;;;5063064;28;20088;-75
2022/04/19 11:38:27;;;;;;;4.97;2.83;;;19.10;63.20;;;;;;5060147;28;19931;-74
2022/04/19 11:49:08;;;;;;;4.57;2.70;;;19.70;61.80;;;;;;5054801;28;20049;-74
2022/04/19 11:51:37;;;;;;;4.65;3.22;;;20.00;61.70;;;;;;5054385;28;20439;-75
2022/04/19 11:54:04;;;;;;;2.95;2.28;;;20.00;61.30;;;;;;5070782;28;20380;-74
2022/04/19 11:56:31;;;;;;;4.70;2.45;;;20.10;61.00;;;;;;5041938;28;20044;-75
2022/04/19 11:59:00;;;;;;;5.13;1.95;;;20.30;59.80;;;;;;5050307;28;20047;-75
2022/04/19 12:01:27;;;;;;;4.45;2.10;;;20.30;59.90;;;;;;5054194;28;20106;-76
2022/04/19 12:03:53;;;;;;;5.40;2.00;;;20.50;59.80;;;;;;5046878;28;20045;-76
2022/04/19 12:06:20;;;;;;;7.35;2.53;;;20.60;59.10;;;;;;5036275;28;20045;-75
2022/04/19 12:08:49;;;;;;;3.35;2.20;;;20.70;59.00;;;;;;5042290;28;20155;-76
2022/04/19 12:11:19;;;;;;;3.50;2.40;;;20.80;58.90;;;;;;5042965;28;20057;-75
2022/04/19 12:13:46;;;;;;;4.38;2.13;;;21.00;58.10;;;;;;5058735;28;20080;-76
2022/04/19 12:16:29;;;;;;;7.28;2.35;;;21.10;57.60;;;;;;5043487;28;20066;-75
2022/04/19 12:19:00;;;;;;;5.18;2.30;;;21.30;57.50;;;;;;5039412;28;20535;-76
2022/04/19 12:21:45;;;;;;;5.55;2.40;;;21.30;57.30;;;;;;5046150;28;20148;-75
2022/04/19 12:24:24;;;;;;;6.25;2.03;;;21.50;57.10;;;;;;5065353;28;20663;-75
2022/04/19 12:27:05;;;;;;;4.22;1.90;;;21.70;56.40;;;;;;5083732;28;20044;-75
2022/04/19 12:29:31;;;;;;;;;;;21.80;55.70;;;;;;5056712;28;20044;-84
2022/04/19 12:32:00;;;;;;;6.10;2.00;;;21.90;56.90;;;;;;5058805;28;19928;-76
2022/04/19 12:35:05;;;;;;;3.85;1.70;;;22.10;56.10;;;;;;5051609;28;20033;-75
2022/04/19 12:37:30;;;;;;;6.30;2.00;;;22.10;55.80;;;;;;5036578;28;20480;-76
2022/04/19 12:40:01;;;;;;;3.08;2.00;;;22.20;54.60;;;;;;5042337;28;20056;-76
2022/04/19 12:42:27;;;;;;;4.13;2.20;;;22.20;54.40;;;;;;5065222;28;20048;-75
2022/04/19 12:45:07;;;;;;;3.08;2.10;;;22.30;54.50;;;;;;5061051;28;20044;-75
2022/04/19 12:47:33;;;;;;;3.42;2.35;;;22.40;54.00;;;;;;5052568;28;20041;-75
2022/04/19 12:50:11;;;;;;;3.00;1.77;;;22.50;53.60;;;;;;5062285;28;20143;-75
2022/04/19 12:52:36;;;;;;;5.00;1.98;;;22.60;54.10;;;;;;5062995;28;20116;-74
2022/04/19 12:55:04;;;;;;;6.63;2.40;;;22.70;53.50;;;;;;5064927;28;20441;-75
2022/04/19 12:57:29;;;;;;;3.47;2.05;;;22.70;52.30;;;;;;5028437;28;20079;-75
2022/04/19 12:59:55;;;;;;;4.18;2.17;;;22.80;52.60;;;;;;5051779;28;20080;-74
2022/04/19 13:02:20;;;;;;;4.30;2.40;;;22.90;52.60;;;;;;5056546;28;20056;-75
2022/04/19 13:04:48;;;;;;;5.43;2.40;;;23.00;52.50;;;;;;5060483;28;20097;-74
2022/04/19 13:12:43;;;;;;;4.00;2.05;;;23.20;51.60;;;;;;5067310;28;20083;-75
2022/04/19 13:15:09;;;;;;;4.55;2.42;;;23.30;51.70;;;;;;5059955;28;20503;-75
2022/04/19 13:17:39;;;;;;;3.65;2.20;;;23.40;52.10;;;;;;5046838;28;20040;-74
2022/04/19 13:20:06;;;;;;;23.85;2.70;;;23.50;51.60;;;;;;5082664;28;20044;-74
2022/04/19 13:22:32;;;;;;;5.07;2.25;;;23.60;51.50;;;;;;5049303;28;20072;-75
2022/04/19 13:24:58;;;;;;;4.55;2.40;;;23.70;51.00;;;;;;5049135;28;20049;-75
2022/04/19 13:27:26;;;;;;;5.60;2.90;;;23.70;50.30;;;;;;5035560;28;20408;-74
2022/04/19 13:29:52;;;;;;;5.82;2.25;;;23.80;50.50;;;;;;5064723;28;20058;-74
2022/04/19 13:32:19;;;;;;;5.40;2.45;;;23.80;51.20;;;;;;5048342;28;20090;-73
2022/04/19 13:34:44;;;;;;;4.20;2.92;;;23.90;51.20;;;;;;5065861;28;20395;-74
2022/04/19 13:37:10;;;;;;;3.70;2.40;;;24.00;50.60;;;;;;5045198;28;20155;-74
2022/04/19 13:39:36;;;;;;;6.28;2.60;;;24.00;50.30;;;;;;5067212;28;20051;-74
2022/04/19 13:42:03;;;;;;;5.30;2.83;;;24.20;50.40;;;;;;5065701;28;20056;-74